createdAt,value
2017-12-21T00:02:26.341Z,6.84
2017-12-21T00:04:54.015Z,6.83
2017-12-21T00:07:21.682Z,6.83
2017-12-21T00:09:49.327Z,6.83
2017-12-21T00:12:17.113Z,6.83
2017-12-21T00:14:44.747Z,6.83
2017-12-21T00:17:12.436Z,6.85
2017-12-21T00:19:40.077Z,6.85
2017-12-21T00:22:07.708Z,6.84
2017-12-21T00:24:35.417Z,6.83
2017-12-21T00:27:03.097Z,6.83
2017-12-21T00:29:30.789Z,6.83
2017-12-21T00:31:58.430Z,6.83
2017-12-21T00:34:26.134Z,6.86
2017-12-21T00:36:53.834Z,6.84
2017-12-21T00:39:21.507Z,6.85
2017-12-21T00:41:49.147Z,6.85
2017-12-21T00:44:16.840Z,6.84
2017-12-21T00:46:44.717Z,6.86
2017-12-21T00:49:12.406Z,6.88
2017-12-21T00:51:40.032Z,6.88
2017-12-21T00:54:07.726Z,6.86
2017-12-21T00:56:35.414Z,6.85
2017-12-21T00:59:03.117Z,6.86
2017-12-21T01:01:30.798Z,6.85
2017-12-21T01:03:58.473Z,6.84
2017-12-21T01:06:26.603Z,6.87
2017-12-21T01:08:54.352Z,6.87
2017-12-21T01:11:22.003Z,6.89
2017-12-21T01:13:49.743Z,6.90
2017-12-21T01:16:17.385Z,6.89
2017-12-21T01:18:45.131Z,6.91
2017-12-21T01:21:12.824Z,6.92
2017-12-21T01:23:40.575Z,6.92
2017-12-21T01:26:08.589Z,6.92
2017-12-21T01:28:36.342Z,6.93
2017-12-21T01:31:04.037Z,6.96
2017-12-21T01:33:31.703Z,6.93
2017-12-21T01:35:59.398Z,6.95
2017-12-21T01:38:27.140Z,6.96
2017-12-21T01:40:54.828Z,6.97
2017-12-21T01:43:22.558Z,6.98
2017-12-21T01:45:50.257Z,7.01
2017-12-21T01:48:17.998Z,6.97
2017-12-21T01:50:45.632Z,7.00
2017-12-21T01:53:13.368Z,7.01
2017-12-21T01:55:41.069Z,7.01
2017-12-21T01:58:08.819Z,6.99
2017-12-21T02:00:36.864Z,7.00
2017-12-21T02:03:04.579Z,7.01
2017-12-21T02:05:32.246Z,7.00
2017-12-21T02:07:59.964Z,7.02
2017-12-21T02:10:27.658Z,7.01
2017-12-21T02:12:55.296Z,7.02
2017-12-21T02:15:23.035Z,7.02
2017-12-21T02:17:50.740Z,7.03
2017-12-21T02:20:18.418Z,7.05
2017-12-21T02:22:46.174Z,7.08
2017-12-21T02:25:13.985Z,7.10
2017-12-21T02:27:41.680Z,7.09
2017-12-21T02:30:09.457Z,7.11
2017-12-21T02:32:37.162Z,7.13
2017-12-21T02:35:04.863Z,7.14
2017-12-21T02:37:32.512Z,7.14
2017-12-21T02:40:00.253Z,7.16
2017-12-21T02:42:27.952Z,7.16
2017-12-21T02:44:55.638Z,7.17
2017-12-21T02:47:23.344Z,7.16
2017-12-21T02:49:51.031Z,7.18
2017-12-21T02:52:18.731Z,7.18
2017-12-21T02:54:46.489Z,7.19
2017-12-21T02:57:14.242Z,7.19
2017-12-21T02:59:42.060Z,7.20
2017-12-21T03:02:09.795Z,7.19
2017-12-21T03:04:37.557Z,7.19
2017-12-21T03:07:05.204Z,7.21
2017-12-21T03:09:32.981Z,7.22
2017-12-21T03:12:00.702Z,7.22
2017-12-21T03:14:28.382Z,7.21
2017-12-21T03:16:56.096Z,7.21
2017-12-21T03:19:23.874Z,7.22
2017-12-21T03:21:51.592Z,7.21
2017-12-21T03:24:19.328Z,7.22
2017-12-21T03:26:47.021Z,7.22
2017-12-21T03:29:14.747Z,7.25
2017-12-21T03:31:42.752Z,7.24
2017-12-21T03:34:10.495Z,7.23
2017-12-21T03:36:38.194Z,7.24
2017-12-21T03:39:05.977Z,7.25
2017-12-21T03:41:33.667Z,7.25
2017-12-21T03:44:01.376Z,7.26
2017-12-21T03:46:29.123Z,7.29
2017-12-21T03:48:57.164Z,7.30
2017-12-21T03:51:24.902Z,7.32
2017-12-21T03:53:52.545Z,7.34
2017-12-21T03:56:20.346Z,7.35
2017-12-21T03:58:48.185Z,7.34
2017-12-21T04:01:15.979Z,7.36
2017-12-21T04:03:44.075Z,7.36
2017-12-21T04:06:11.737Z,7.35
2017-12-21T04:08:39.712Z,7.37
2017-12-21T04:11:07.476Z,7.37
2017-12-21T04:13:35.169Z,7.36
2017-12-21T04:16:02.828Z,7.37
2017-12-21T04:18:30.533Z,7.36
2017-12-21T04:20:58.215Z,7.39
2017-12-21T04:23:25.916Z,7.39
2017-12-21T04:25:53.645Z,7.40
2017-12-21T04:28:21.328Z,7.41
2017-12-21T04:30:49.001Z,7.44
2017-12-21T04:33:16.656Z,7.43
2017-12-21T04:35:44.399Z,7.44
2017-12-21T04:38:12.093Z,7.45
2017-12-21T04:40:39.817Z,7.46
2017-12-21T04:43:07.509Z,7.47
2017-12-21T04:45:35.241Z,7.49
2017-12-21T04:48:02.957Z,7.48
2017-12-21T04:50:30.628Z,7.50
2017-12-21T04:52:58.249Z,7.49
2017-12-21T04:55:25.925Z,7.48
2017-12-21T04:57:53.635Z,7.51
2017-12-21T05:00:21.441Z,7.52
2017-12-21T05:02:49.148Z,7.51
2017-12-21T05:05:16.826Z,7.53
2017-12-21T05:07:44.453Z,7.52
2017-12-21T05:10:12.210Z,7.51
2017-12-21T05:12:39.926Z,7.52
2017-12-21T05:15:07.603Z,7.53
2017-12-21T05:17:35.320Z,7.53
2017-12-21T05:20:03.007Z,7.54
2017-12-21T05:22:30.689Z,7.55
2017-12-21T05:24:58.414Z,7.55
2017-12-21T05:27:26.177Z,7.57
2017-12-21T05:29:53.918Z,7.58
2017-12-21T05:32:21.655Z,7.60
2017-12-21T05:34:49.314Z,7.61
2017-12-21T05:37:16.977Z,7.63
2017-12-21T05:39:44.633Z,7.63
2017-12-21T05:42:12.398Z,7.64
2017-12-21T05:44:40.054Z,7.68
2017-12-21T05:47:07.825Z,7.70
2017-12-21T05:49:35.532Z,7.69
2017-12-21T05:52:03.215Z,7.71
2017-12-21T05:54:30.952Z,7.72
2017-12-21T05:56:58.697Z,7.71
2017-12-21T05:59:26.501Z,7.72
2017-12-21T06:01:54.171Z,7.74
2017-12-21T06:04:21.845Z,7.72
2017-12-21T06:06:49.516Z,7.71
2017-12-21T06:09:17.185Z,7.73
2017-12-21T06:11:44.875Z,7.74
2017-12-21T06:14:12.549Z,7.79
2017-12-21T06:16:40.258Z,7.81
2017-12-21T06:19:07.960Z,7.79
2017-12-21T06:21:35.654Z,7.79
2017-12-21T06:24:03.313Z,7.79
2017-12-21T06:26:30.993Z,7.77
2017-12-21T06:28:58.655Z,7.77
2017-12-21T06:31:26.405Z,7.82
2017-12-21T06:33:54.167Z,7.85
2017-12-21T06:36:21.929Z,7.86
2017-12-21T06:38:49.663Z,7.84
2017-12-21T06:41:17.335Z,7.86
2017-12-21T06:43:45.117Z,7.95
2017-12-21T06:46:12.805Z,7.97
2017-12-21T06:48:40.557Z,7.98
2017-12-21T06:51:08.241Z,7.99
2017-12-21T06:53:36.015Z,7.99
2017-12-21T06:56:03.763Z,7.99
2017-12-21T06:58:31.499Z,8.00
2017-12-21T07:00:59.281Z,8.01
2017-12-21T07:03:27.030Z,7.99
2017-12-21T07:05:54.765Z,7.99
2017-12-21T07:08:22.535Z,8.00
2017-12-21T07:10:50.264Z,7.98
2017-12-21T07:13:18.066Z,7.94
2017-12-21T07:15:45.849Z,7.97
2017-12-21T07:18:13.608Z,8.01
2017-12-21T07:20:41.344Z,8.02
2017-12-21T07:23:09.048Z,8.01
2017-12-21T07:25:36.761Z,7.98
2017-12-21T07:28:04.449Z,7.93
2017-12-21T07:30:32.114Z,7.92
2017-12-21T07:32:59.858Z,7.96
2017-12-21T07:35:27.622Z,8.00
2017-12-21T07:37:55.369Z,7.98
2017-12-21T07:40:23.120Z,7.96
2017-12-21T07:42:50.805Z,7.94
2017-12-21T07:45:18.424Z,7.91
2017-12-21T07:47:46.168Z,7.92
2017-12-21T07:50:13.845Z,7.89
2017-12-21T07:52:41.592Z,7.86
2017-12-21T07:55:09.222Z,7.86
2017-12-21T07:57:36.896Z,7.87
2017-12-21T08:00:04.538Z,7.86
2017-12-21T08:02:32.212Z,7.84
2017-12-21T08:04:59.952Z,7.84
2017-12-21T08:07:27.625Z,7.83
2017-12-21T08:09:55.302Z,7.85
2017-12-21T08:12:22.978Z,7.88
2017-12-21T08:14:50.602Z,7.89
2017-12-21T08:17:18.280Z,7.87
2017-12-21T08:19:45.911Z,7.87
2017-12-21T08:22:13.652Z,7.86
2017-12-21T08:24:41.365Z,7.86
2017-12-21T08:27:09.074Z,7.86
2017-12-21T08:29:36.766Z,7.84
2017-12-21T08:32:04.453Z,7.85
2017-12-21T08:34:32.142Z,7.88
2017-12-21T08:36:59.841Z,7.88
2017-12-21T08:39:27.487Z,7.88
2017-12-21T08:41:55.183Z,7.88
2017-12-21T08:44:23.082Z,7.90
2017-12-21T08:46:50.730Z,7.90
2017-12-21T08:49:18.410Z,7.90
2017-12-21T08:51:46.046Z,7.90
2017-12-21T08:54:13.795Z,7.90
2017-12-21T08:56:41.550Z,7.91
2017-12-21T08:59:09.211Z,7.92
2017-12-21T09:01:36.872Z,7.92
2017-12-21T09:04:04.597Z,7.90
2017-12-21T09:06:32.266Z,7.89
2017-12-21T09:09:00.036Z,7.89
2017-12-21T09:11:28.061Z,7.90
2017-12-21T09:13:55.885Z,7.89
2017-12-21T09:16:23.666Z,7.91
2017-12-21T09:18:51.430Z,7.89
2017-12-21T09:21:19.103Z,7.90
2017-12-21T09:23:46.880Z,7.87
2017-12-21T09:26:14.606Z,7.82
2017-12-21T09:28:42.371Z,7.82
2017-12-21T09:31:10.060Z,7.79
2017-12-21T09:33:37.735Z,7.70
2017-12-21T09:36:05.428Z,7.63
2017-12-21T09:38:33.123Z,7.58
2017-12-21T09:41:00.817Z,7.56
2017-12-21T09:43:28.558Z,7.56
2017-12-21T09:45:56.265Z,7.58
2017-12-21T09:48:23.938Z,7.57
2017-12-21T09:50:51.660Z,7.61
2017-12-21T09:53:19.415Z,7.65
2017-12-21T09:55:47.112Z,7.68
2017-12-21T09:58:14.784Z,7.68
2017-12-21T10:00:42.944Z,7.66
2017-12-21T10:03:10.718Z,7.63
2017-12-21T10:05:38.430Z,7.63
2017-12-21T10:08:06.182Z,7.66
2017-12-21T10:10:33.895Z,7.62
2017-12-21T10:13:01.658Z,7.50
2017-12-21T10:15:29.364Z,7.44
2017-12-21T10:17:57.102Z,7.41
2017-12-21T10:20:24.833Z,7.38
2017-12-21T10:22:52.518Z,7.35
2017-12-21T10:25:20.290Z,7.34
2017-12-21T10:27:48.006Z,7.35
2017-12-21T10:30:15.764Z,7.34
2017-12-21T10:32:43.504Z,7.37
2017-12-21T10:35:11.269Z,7.46
2017-12-21T10:37:39.018Z,7.54
2017-12-21T10:40:06.832Z,7.65
2017-12-21T10:42:34.531Z,7.70
2017-12-21T10:45:02.220Z,7.76
2017-12-21T10:47:29.970Z,7.77
2017-12-21T10:49:57.696Z,7.75
2017-12-21T10:52:25.564Z,7.77
2017-12-21T10:54:53.306Z,7.77
2017-12-21T10:57:20.937Z,7.80
2017-12-21T10:59:48.616Z,7.97
2017-12-21T11:02:16.262Z,7.94
2017-12-21T11:04:43.945Z,7.85
2017-12-21T11:07:11.555Z,7.77
2017-12-21T11:09:39.236Z,7.70
2017-12-21T11:12:06.863Z,7.62
2017-12-21T11:14:34.545Z,7.65
2017-12-21T11:17:02.212Z,7.64
2017-12-21T11:19:29.912Z,7.54
2017-12-21T11:21:57.552Z,7.38
2017-12-21T11:24:25.222Z,7.22
2017-12-21T11:26:52.883Z,7.21
2017-12-21T11:29:20.561Z,7.17
2017-12-21T11:31:48.262Z,7.11
2017-12-21T11:34:15.969Z,7.11
2017-12-21T11:36:43.607Z,7.07
2017-12-21T11:39:11.312Z,7.03
2017-12-21T11:41:38.946Z,7.02
2017-12-21T11:44:06.625Z,7.04
2017-12-21T11:46:34.270Z,6.96
2017-12-21T11:49:01.957Z,7.02
2017-12-21T11:51:29.624Z,7.04
2017-12-21T11:53:57.409Z,6.97
2017-12-21T11:56:25.041Z,6.96
2017-12-21T11:58:52.806Z,6.97
2017-12-21T12:01:20.441Z,7.01
2017-12-21T12:03:48.101Z,6.96
2017-12-21T12:06:15.936Z,6.94
2017-12-21T12:08:43.632Z,6.91
2017-12-21T12:11:11.387Z,6.97
2017-12-21T12:13:39.088Z,7.02
2017-12-21T12:16:06.832Z,7.04
2017-12-21T12:18:34.521Z,7.00
2017-12-21T12:21:02.264Z,6.98
2017-12-21T12:23:29.907Z,6.95
2017-12-21T12:25:57.591Z,6.95
2017-12-21T12:28:25.279Z,6.93
2017-12-21T12:30:53.032Z,6.84
2017-12-21T12:33:20.749Z,6.82
2017-12-21T12:35:48.524Z,6.79
2017-12-21T12:38:16.208Z,6.79
2017-12-21T12:40:43.980Z,6.79
2017-12-21T12:43:11.611Z,6.79
2017-12-21T12:45:39.416Z,6.76
2017-12-21T12:48:07.198Z,6.72
2017-12-21T12:50:34.917Z,6.69
2017-12-21T12:53:02.604Z,6.69
2017-12-21T12:55:30.288Z,6.66
2017-12-21T12:57:57.972Z,6.63
2017-12-21T13:00:25.677Z,6.65
2017-12-21T13:02:53.443Z,6.72
2017-12-21T13:05:21.128Z,6.75
2017-12-21T13:07:48.902Z,6.75
2017-12-21T13:10:16.660Z,6.75
2017-12-21T13:12:44.342Z,6.71
2017-12-21T13:15:12.125Z,6.72
2017-12-21T13:17:39.856Z,6.72
2017-12-21T13:20:07.652Z,6.74
2017-12-21T13:22:35.394Z,6.79
2017-12-21T13:25:03.147Z,6.83
2017-12-21T13:27:30.942Z,6.90
2017-12-21T13:29:58.710Z,6.89
2017-12-21T13:32:26.437Z,6.89
2017-12-21T13:34:54.139Z,6.87
2017-12-21T13:37:21.888Z,6.80
2017-12-21T13:39:49.645Z,6.73
2017-12-21T13:42:17.389Z,6.71
2017-12-21T13:44:45.112Z,6.69
2017-12-21T13:47:12.774Z,6.68
2017-12-21T13:49:40.468Z,6.63
2017-12-21T13:52:08.203Z,6.61
2017-12-21T13:54:36.129Z,6.59
2017-12-21T13:57:03.870Z,6.57
2017-12-21T13:59:31.594Z,6.55
2017-12-21T14:01:59.418Z,6.54
2017-12-21T14:04:27.167Z,6.54
2017-12-21T14:06:54.903Z,6.54
2017-12-21T14:09:22.706Z,6.54
2017-12-21T14:11:50.478Z,6.53
2017-12-21T14:14:18.226Z,6.53
2017-12-21T14:16:45.897Z,6.52
2017-12-21T14:19:13.582Z,6.52
2017-12-21T14:21:41.333Z,6.49
2017-12-21T14:24:09.010Z,6.52
2017-12-21T14:26:36.759Z,6.50
2017-12-21T14:29:04.453Z,6.50
2017-12-21T14:31:32.144Z,6.49
2017-12-21T14:33:59.944Z,6.48
2017-12-21T14:36:27.642Z,6.47
2017-12-21T14:38:55.392Z,6.46
2017-12-21T14:41:23.136Z,6.41
2017-12-21T14:43:50.845Z,6.41
2017-12-21T14:46:18.586Z,6.39
2017-12-21T14:48:46.278Z,6.39
2017-12-21T14:51:14.003Z,6.37
2017-12-21T14:53:41.730Z,6.34
2017-12-21T14:56:09.458Z,6.34
2017-12-21T14:58:37.145Z,6.32
2017-12-21T15:01:04.922Z,6.28
2017-12-21T15:03:32.610Z,6.25
2017-12-21T15:06:00.360Z,6.24
2017-12-21T15:08:28.058Z,6.23
2017-12-21T15:10:55.801Z,6.23
2017-12-21T15:13:23.546Z,6.21
2017-12-21T15:15:51.226Z,6.18
2017-12-21T15:18:18.932Z,6.15
2017-12-21T15:20:46.689Z,6.10
2017-12-21T15:23:14.401Z,6.06
2017-12-21T15:25:42.103Z,6.02
2017-12-21T15:28:09.863Z,6.05
2017-12-21T15:30:37.571Z,6.04
2017-12-21T15:33:05.301Z,6.01
2017-12-21T15:35:32.999Z,5.93
2017-12-21T15:38:00.719Z,5.85
2017-12-21T15:40:28.396Z,5.81
2017-12-21T15:42:56.140Z,5.78
2017-12-21T15:45:23.763Z,5.73
2017-12-21T15:47:51.443Z,5.66
2017-12-21T15:50:19.099Z,5.61
2017-12-21T15:52:46.768Z,5.59
2017-12-21T15:55:14.397Z,5.62
2017-12-21T15:57:42.078Z,5.68
2017-12-21T16:00:09.735Z,5.76
2017-12-21T16:02:37.397Z,5.79
2017-12-21T16:05:06.114Z,5.83
2017-12-21T16:07:33.800Z,5.84
2017-12-21T16:10:01.445Z,5.82
2017-12-21T16:12:29.141Z,5.81
2017-12-21T16:14:56.984Z,5.81
2017-12-21T16:17:24.672Z,5.76
2017-12-21T16:19:52.294Z,5.69
2017-12-21T16:22:20.027Z,5.66
2017-12-21T16:24:47.656Z,5.72
2017-12-21T16:27:15.317Z,5.77
2017-12-21T16:29:42.947Z,5.75
2017-12-21T16:32:10.609Z,5.73
2017-12-21T16:34:38.252Z,5.71
2017-12-21T16:37:06.000Z,5.65
2017-12-21T16:39:33.712Z,5.59
2017-12-21T16:42:01.463Z,5.62
2017-12-21T16:44:29.164Z,5.65
2017-12-21T16:46:56.840Z,5.65
2017-12-21T16:49:24.497Z,5.64
2017-12-21T16:51:53.227Z,5.61
2017-12-21T16:54:22.746Z,5.57
2017-12-21T16:56:50.574Z,5.55
2017-12-21T16:59:18.245Z,5.56
2017-12-21T17:01:45.912Z,5.58
2017-12-21T17:04:13.555Z,5.58
2017-12-21T17:06:41.205Z,5.57
2017-12-21T17:09:08.893Z,5.56
2017-12-21T17:11:36.532Z,5.54
2017-12-21T17:14:04.210Z,5.51
2017-12-21T17:16:31.876Z,5.49
2017-12-21T17:18:59.656Z,5.46
2017-12-21T17:21:27.357Z,5.45
2017-12-21T17:23:55.015Z,5.43
2017-12-21T17:26:22.783Z,5.39
2017-12-21T17:28:50.620Z,5.36
2017-12-21T17:31:18.334Z,5.31
2017-12-21T17:33:46.054Z,5.22
2017-12-21T17:36:13.751Z,5.10
2017-12-21T17:38:41.422Z,5.01
2017-12-21T17:41:09.055Z,4.96
2017-12-21T17:43:36.791Z,4.93
2017-12-21T17:46:04.465Z,4.84
2017-12-21T17:48:32.144Z,4.82
2017-12-21T17:50:59.851Z,4.98
2017-12-21T17:53:27.590Z,5.09
2017-12-21T17:55:55.240Z,5.18
2017-12-21T17:58:22.920Z,5.25
2017-12-21T18:00:50.674Z,5.29
2017-12-21T18:03:18.396Z,5.36
2017-12-21T18:05:46.115Z,5.44
2017-12-21T18:08:13.895Z,5.51
2017-12-21T18:10:41.627Z,5.58
2017-12-21T18:13:09.413Z,5.69
2017-12-21T18:15:37.124Z,5.81
2017-12-21T18:18:04.906Z,5.86
2017-12-21T18:20:32.570Z,5.93
2017-12-21T18:23:00.258Z,5.98
2017-12-21T18:25:28.009Z,5.99
2017-12-21T18:27:55.741Z,5.99
2017-12-21T18:30:23.503Z,6.03
2017-12-21T18:32:51.249Z,6.04
2017-12-21T18:35:19.001Z,6.08
2017-12-21T18:37:46.745Z,6.11
2017-12-21T18:40:14.475Z,6.14
2017-12-21T18:42:42.223Z,6.14
2017-12-21T18:45:09.954Z,6.17
2017-12-21T18:47:37.652Z,6.21
2017-12-21T18:50:05.379Z,6.19
2017-12-21T18:52:33.111Z,6.17
2017-12-21T18:55:00.839Z,6.15
2017-12-21T18:57:28.481Z,6.12
2017-12-21T18:59:56.261Z,6.10
2017-12-21T19:02:23.900Z,6.10
2017-12-21T19:04:51.640Z,6.08
2017-12-21T19:07:19.336Z,6.11
2017-12-21T19:09:47.032Z,6.09
2017-12-21T19:12:14.721Z,6.08
2017-12-21T19:14:42.435Z,6.07
2017-12-21T19:17:10.073Z,6.06
2017-12-21T19:19:38.943Z,6.07
2017-12-21T19:22:06.690Z,6.08
2017-12-21T19:24:34.378Z,6.08
2017-12-21T19:27:02.428Z,6.08
2017-12-21T19:29:30.130Z,6.11
2017-12-21T19:32:14.318Z,6.09
2017-12-21T19:34:42.077Z,6.08
2017-12-21T19:37:09.764Z,6.09
2017-12-21T19:39:37.482Z,6.11
2017-12-21T19:42:05.210Z,6.11
2017-12-21T19:44:32.878Z,6.11
2017-12-21T19:47:00.542Z,6.12
2017-12-21T19:49:28.279Z,6.11
2017-12-21T19:51:55.918Z,6.09
2017-12-21T19:54:23.597Z,6.12
2017-12-21T19:56:51.260Z,6.12
2017-12-21T19:59:19.094Z,6.12
2017-12-21T20:01:46.790Z,6.16
2017-12-21T20:04:14.568Z,6.15
2017-12-21T20:06:42.316Z,6.17
2017-12-21T20:09:10.128Z,6.16
2017-12-21T20:11:37.899Z,6.15
2017-12-21T20:14:05.689Z,6.13
2017-12-21T20:16:33.364Z,6.14
2017-12-21T20:19:01.159Z,6.14
2017-12-21T20:21:28.920Z,6.14
2017-12-21T20:23:56.662Z,6.15
2017-12-21T20:26:24.504Z,6.15
2017-12-21T20:28:52.187Z,6.16
2017-12-21T20:31:19.859Z,6.16
2017-12-21T20:33:47.541Z,6.17
2017-12-21T20:36:15.159Z,6.19
2017-12-21T20:38:42.850Z,6.17
2017-12-21T20:41:10.585Z,6.16
2017-12-21T20:43:38.237Z,6.16
2017-12-21T20:46:06.156Z,6.16
2017-12-21T20:48:33.792Z,6.16
2017-12-21T20:51:01.532Z,6.16
2017-12-21T20:53:29.218Z,6.19
2017-12-21T20:55:56.964Z,6.18
2017-12-21T20:58:35.161Z,6.20
2017-12-21T21:01:20.340Z,6.21
2017-12-21T21:03:49.123Z,6.24
2017-12-21T21:06:26.749Z,6.24
2017-12-21T21:08:54.959Z,6.24
2017-12-21T21:11:22.684Z,6.22
2017-12-21T21:13:50.375Z,6.26
2017-12-21T21:16:18.146Z,6.26
2017-12-21T21:18:45.905Z,6.29
2017-12-21T21:21:13.668Z,6.29
2017-12-21T21:23:41.461Z,6.31
2017-12-21T21:26:09.268Z,6.32
2017-12-21T21:28:37.137Z,6.31
2017-12-21T21:31:04.829Z,6.34
2017-12-21T21:33:32.539Z,6.35
2017-12-21T21:36:00.415Z,6.35
2017-12-21T21:38:28.168Z,6.34
2017-12-21T21:40:55.907Z,6.35
2017-12-21T21:43:23.596Z,6.35
2017-12-21T21:45:51.408Z,6.33
2017-12-21T21:48:19.110Z,6.33
2017-12-21T21:50:46.843Z,6.31
2017-12-21T21:53:14.507Z,6.32
2017-12-21T21:55:42.267Z,6.32
2017-12-21T21:58:10.024Z,6.32
2017-12-21T22:00:37.767Z,6.32
2017-12-21T22:03:05.487Z,6.32
2017-12-21T22:05:33.287Z,6.32
2017-12-21T22:08:00.965Z,6.33
2017-12-21T22:10:28.788Z,6.32
2017-12-21T22:12:56.465Z,6.31
2017-12-21T22:15:24.205Z,6.31
2017-12-21T22:17:51.949Z,6.32
2017-12-21T22:20:19.684Z,6.34
2017-12-21T22:22:47.427Z,6.36
2017-12-21T22:25:15.156Z,6.36
2017-12-21T22:27:42.834Z,6.34
2017-12-21T22:30:10.555Z,6.34
2017-12-21T22:32:38.297Z,6.33
2017-12-21T22:35:06.038Z,6.34
2017-12-21T22:37:33.763Z,6.37
2017-12-21T22:40:01.493Z,6.35
2017-12-21T22:42:29.159Z,6.34
2017-12-21T22:44:56.925Z,6.33
2017-12-21T22:47:24.607Z,6.34
2017-12-21T22:49:52.338Z,6.33
2017-12-21T22:52:20.078Z,6.31
2017-12-21T22:54:47.706Z,6.32
2017-12-21T22:57:15.429Z,6.30
2017-12-21T22:59:43.095Z,6.29
2017-12-21T23:02:10.812Z,6.30
2017-12-21T23:04:38.480Z,6.29
2017-12-21T23:07:06.209Z,6.31
2017-12-21T23:09:34.763Z,6.29
2017-12-21T23:12:02.475Z,6.32
2017-12-21T23:14:30.143Z,6.30
2017-12-21T23:16:57.865Z,6.33
2017-12-21T23:19:25.567Z,6.31
2017-12-21T23:21:53.301Z,6.30
2017-12-21T23:24:20.992Z,6.30
2017-12-21T23:26:48.697Z,6.28
2017-12-21T23:29:16.323Z,6.29
2017-12-21T23:31:44.064Z,6.30
2017-12-21T23:34:11.720Z,6.29
2017-12-21T23:36:39.405Z,6.30
2017-12-21T23:39:07.087Z,6.30
2017-12-21T23:41:34.745Z,6.30
2017-12-21T23:44:02.448Z,6.28
2017-12-21T23:46:30.067Z,6.27
2017-12-21T23:48:57.772Z,6.27
2017-12-21T23:51:25.439Z,6.28
2017-12-21T23:53:53.127Z,6.27
2017-12-21T23:56:20.876Z,6.28
2017-12-21T23:58:48.552Z,6.28
